sensor_id;sensor_type;location;lat;lon;timestamp;temperature;humidity
23597;DHT22;40226;50.874;4.394;2022-11-14T00:01:08;9.10;99.90
23597;DHT22;40226;50.874;4.394;2022-11-14T00:03:34;9.40;99.90
23597;DHT22;40226;50.874;4.394;2022-11-14T00:06:04;9.50;99.90
23597;DHT22;40226;50.874;4.394;2022-11-14T00:08:31;9.30;99.90
23597;DHT22;40226;50.874;4.394;2022-11-14T00:10:56;9.10;99.90
23597;DHT22;40226;50.874;4.394;2022-11-14T00:13:22;9.00;99.90
23597;DHT22;40226;50.874;4.394;2022-11-14T00:15:51;9.10;99.90
23597;DHT22;40226;50.874;4.394;2022-11-14T00:18:18;9.00;99.90
23597;DHT22;40226;50.874;4.394;2022-11-14T00:20:50;9.00;99.90
23597;DHT22;40226;50.874;4.394;2022-11-14T00:23:16;9.00;99.90
23597;DHT22;40226;50.874;4.394;2022-11-14T00:25:43;8.90;99.90
23597;DHT22;40226;50.874;4.394;2022-11-14T00:28:09;8.80;99.90
23597;DHT22;40226;50.874;4.394;2022-11-14T00:30:34;8.90;99.90
23597;DHT22;40226;50.874;4.394;2022-11-14T00:33:00;9.10;99.90
23597;DHT22;40226;50.874;4.394;2022-11-14T00:35:25;9.10;99.90
23597;DHT22;40226;50.874;4.394;2022-11-14T00:37:51;9.10;99.90
23597;DHT22;40226;50.874;4.394;2022-11-14T00:40:17;9.10;99.90
23597;DHT22;40226;50.874;4.394;2022-11-14T00:42:42;9.10;99.90
23597;DHT22;40226;50.874;4.394;2022-11-14T00:45:10;9.00;99.90
23597;DHT22;40226;50.874;4.394;2022-11-14T00:47:36;8.80;99.90
23597;DHT22;40226;50.874;4.394;2022-11-14T00:50:22;8.70;99.90
23597;DHT22;40226;50.874;4.394;2022-11-14T00:53:05;8.70;99.90
23597;DHT22;40226;50.874;4.394;2022-11-14T00:55:30;8.70;99.90
23597;DHT22;40226;50.874;4.394;2022-11-14T00:57:56;8.60;99.90
23597;DHT22;40226;50.874;4.394;2022-11-14T01:00:21;8.60;99.90
23597;DHT22;40226;50.874;4.394;2022-11-14T01:02:47;8.60;99.90
23597;DHT22;40226;50.874;4.394;2022-11-14T01:05:13;8.80;99.90
23597;DHT22;40226;50.874;4.394;2022-11-14T01:07:38;8.90;99.90
23597;DHT22;40226;50.874;4.394;2022-11-14T01:10:04;8.90;99.90
23597;DHT22;40226;50.874;4.394;2022-11-14T01:12:30;9.00;99.90
23597;DHT22;40226;50.874;4.394;2022-11-14T01:14:56;9.00;99.90
23597;DHT22;40226;50.874;4.394;2022-11-14T01:17:21;8.70;99.90
23597;DHT22;40226;50.874;4.394;2022-11-14T01:19:47;8.60;99.90
23597;DHT22;40226;50.874;4.394;2022-11-14T01:22:12;8.60;99.90
23597;DHT22;40226;50.874;4.394;2022-11-14T01:24:38;8.50;99.90
23597;DHT22;40226;50.874;4.394;2022-11-14T01:27:04;8.40;99.90
23597;DHT22;40226;50.874;4.394;2022-11-14T01:29:29;8.40;99.90
23597;DHT22;40226;50.874;4.394;2022-11-14T01:31:55;8.50;99.90
23597;DHT22;40226;50.874;4.394;2022-11-14T01:34:21;8.40;99.90
23597;DHT22;40226;50.874;4.394;2022-11-14T01:36:46;8.40;99.90
23597;DHT22;40226;50.874;4.394;2022-11-14T01:39:12;8.40;99.90
23597;DHT22;40226;50.874;4.394;2022-11-14T01:41:38;8.30;99.90
23597;DHT22;40226;50.874;4.394;2022-11-14T01:44:56;8.20;99.90
23597;DHT22;40226;50.874;4.394;2022-11-14T01:46:56;8.10;99.90
23597;DHT22;40226;50.874;4.394;2022-11-14T01:49:26;8.20;99.90
23597;DHT22;40226;50.874;4.394;2022-11-14T01:52:01;8.20;99.90
23597;DHT22;40226;50.874;4.394;2022-11-14T01:54:32;8.20;99.90
23597;DHT22;40226;50.874;4.394;2022-11-14T01:57:00;8.10;99.90
23597;DHT22;40226;50.874;4.394;2022-11-14T01:59:36;8.10;99.90
23597;DHT22;40226;50.874;4.394;2022-11-14T02:02:09;8.10;99.90
23597;DHT22;40226;50.874;4.394;2022-11-14T02:04:41;8.20;99.90
23597;DHT22;40226;50.874;4.394;2022-11-14T02:07:08;8.20;99.90
23597;DHT22;40226;50.874;4.394;2022-11-14T02:09:36;8.20;99.90
23597;DHT22;40226;50.874;4.394;2022-11-14T02:12:05;8.40;99.90
23597;DHT22;40226;50.874;4.394;2022-11-14T02:14:32;8.40;99.90
23597;DHT22;40226;50.874;4.394;2022-11-14T02:16:58;8.50;99.90
23597;DHT22;40226;50.874;4.394;2022-11-14T02:19:24;8.30;99.90
23597;DHT22;40226;50.874;4.394;2022-11-14T02:21:50;8.10;99.90
23597;DHT22;40226;50.874;4.394;2022-11-14T02:24:15;8.00;99.90
23597;DHT22;40226;50.874;4.394;2022-11-14T02:26:41;8.00;99.90
23597;DHT22;40226;50.874;4.394;2022-11-14T02:29:09;8.00;99.90
23597;DHT22;40226;50.874;4.394;2022-11-14T02:31:35;8.00;99.90
23597;DHT22;40226;50.874;4.394;2022-11-14T02:34:01;8.00;99.90
23597;DHT22;40226;50.874;4.394;2022-11-14T02:36:26;8.20;99.90
23597;DHT22;40226;50.874;4.394;2022-11-14T02:38:52;8.30;99.90
23597;DHT22;40226;50.874;4.394;2022-11-14T02:41:18;8.30;99.90
23597;DHT22;40226;50.874;4.394;2022-11-14T02:43:43;8.20;99.90
23597;DHT22;40226;50.874;4.394;2022-11-14T02:46:09;8.10;99.90
23597;DHT22;40226;50.874;4.394;2022-11-14T02:48:34;8.30;99.90
23597;DHT22;40226;50.874;4.394;2022-11-14T02:51:00;8.40;99.90
23597;DHT22;40226;50.874;4.394;2022-11-14T02:53:25;8.40;99.90
23597;DHT22;40226;50.874;4.394;2022-11-14T02:55:51;8.40;99.90
23597;DHT22;40226;50.874;4.394;2022-11-14T02:58:17;8.50;99.90
23597;DHT22;40226;50.874;4.394;2022-11-14T03:00:42;8.50;99.90
23597;DHT22;40226;50.874;4.394;2022-11-14T03:03:08;8.40;99.90
23597;DHT22;40226;50.874;4.394;2022-11-14T03:05:34;8.20;99.90
23597;DHT22;40226;50.874;4.394;2022-11-14T03:07:59;8.10;99.90
23597;DHT22;40226;50.874;4.394;2022-11-14T03:10:25;8.00;99.90
23597;DHT22;40226;50.874;4.394;2022-11-14T03:12:54;8.10;99.90
23597;DHT22;40226;50.874;4.394;2022-11-14T03:15:20;8.20;99.90
23597;DHT22;40226;50.874;4.394;2022-11-14T03:17:45;8.20;99.90
23597;DHT22;40226;50.874;4.394;2022-11-14T03:20:11;7.90;99.90
23597;DHT22;40226;50.874;4.394;2022-11-14T03:22:36;8.00;99.90
23597;DHT22;40226;50.874;4.394;2022-11-14T03:25:02;8.00;99.90
23597;DHT22;40226;50.874;4.394;2022-11-14T03:27:27;8.00;99.90
23597;DHT22;40226;50.874;4.394;2022-11-14T03:29:54;8.10;99.90
23597;DHT22;40226;50.874;4.394;2022-11-14T03:32:19;8.20;99.90
23597;DHT22;40226;50.874;4.394;2022-11-14T03:34:45;8.40;99.90
23597;DHT22;40226;50.874;4.394;2022-11-14T03:37:11;8.40;99.90
23597;DHT22;40226;50.874;4.394;2022-11-14T03:39:36;8.40;99.90
23597;DHT22;40226;50.874;4.394;2022-11-14T03:42:02;8.30;99.90
23597;DHT22;40226;50.874;4.394;2022-11-14T03:44:28;8.00;99.90
23597;DHT22;40226;50.874;4.394;2022-11-14T03:46:53;7.80;99.90
23597;DHT22;40226;50.874;4.394;2022-11-14T03:49:19;7.70;99.90
23597;DHT22;40226;50.874;4.394;2022-11-14T03:51:44;7.50;99.90
23597;DHT22;40226;50.874;4.394;2022-11-14T03:54:10;7.50;99.90
23597;DHT22;40226;50.874;4.394;2022-11-14T03:56:36;7.50;99.90
23597;DHT22;40226;50.874;4.394;2022-11-14T03:59:02;7.50;99.90
23597;DHT22;40226;50.874;4.394;2022-11-14T04:01:27;7.40;99.90
23597;DHT22;40226;50.874;4.394;2022-11-14T04:03:54;7.40;99.90
23597;DHT22;40226;50.874;4.394;2022-11-14T04:06:19;7.40;99.90
23597;DHT22;40226;50.874;4.394;2022-11-14T04:08:45;7.40;99.90
23597;DHT22;40226;50.874;4.394;2022-11-14T04:11:11;7.20;99.90
23597;DHT22;40226;50.874;4.394;2022-11-14T04:13:36;7.20;99.90
23597;DHT22;40226;50.874;4.394;2022-11-14T04:16:02;7.30;99.90
23597;DHT22;40226;50.874;4.394;2022-11-14T04:18:28;7.30;99.90
23597;DHT22;40226;50.874;4.394;2022-11-14T04:20:53;7.30;99.90
23597;DHT22;40226;50.874;4.394;2022-11-14T04:23:19;7.40;99.90
23597;DHT22;40226;50.874;4.394;2022-11-14T04:25:45;7.30;99.90
23597;DHT22;40226;50.874;4.394;2022-11-14T04:28:11;7.40;99.90
23597;DHT22;40226;50.874;4.394;2022-11-14T04:30:37;7.40;99.90
23597;DHT22;40226;50.874;4.394;2022-11-14T04:33:04;7.40;99.90
23597;DHT22;40226;50.874;4.394;2022-11-14T04:35:30;7.30;99.90
23597;DHT22;40226;50.874;4.394;2022-11-14T04:37:56;7.30;99.90
23597;DHT22;40226;50.874;4.394;2022-11-14T04:40:21;7.50;99.90
23597;DHT22;40226;50.874;4.394;2022-11-14T04:43:27;7.60;99.90
23597;DHT22;40226;50.874;4.394;2022-11-14T04:46:47;7.70;99.90
23597;DHT22;40226;50.874;4.394;2022-11-14T04:49:35;7.80;99.90
23597;DHT22;40226;50.874;4.394;2022-11-14T04:52:30;8.00;99.90
23597;DHT22;40226;50.874;4.394;2022-11-14T04:55:36;7.80;99.90
23597;DHT22;40226;50.874;4.394;2022-11-14T04:59:01;7.60;99.90
23597;DHT22;40226;50.874;4.394;2022-11-14T05:02:21;7.50;99.90
23597;DHT22;40226;50.874;4.394;2022-11-14T05:05:27;7.50;99.90
23597;DHT22;40226;50.874;4.394;2022-11-14T05:13:04;7.30;99.90
23597;DHT22;40226;50.874;4.394;2022-11-14T05:15:30;7.30;99.90
23597;DHT22;40226;50.874;4.394;2022-11-14T05:17:56;7.40;99.90
23597;DHT22;40226;50.874;4.394;2022-11-14T05:20:23;7.50;99.90
23597;DHT22;40226;50.874;4.394;2022-11-14T05:22:53;7.50;99.90
23597;DHT22;40226;50.874;4.394;2022-11-14T05:26:04;7.20;99.90
23597;DHT22;40226;50.874;4.394;2022-11-14T05:28:29;6.80;99.90
23597;DHT22;40226;50.874;4.394;2022-11-14T05:31:07;6.60;99.90
23597;DHT22;40226;50.874;4.394;2022-11-14T05:33:33;6.50;99.90
23597;DHT22;40226;50.874;4.394;2022-11-14T05:36:11;6.50;99.90
23597;DHT22;40226;50.874;4.394;2022-11-14T05:38:37;6.60;99.90
23597;DHT22;40226;50.874;4.394;2022-11-14T05:41:07;6.90;99.90
23597;DHT22;40226;50.874;4.394;2022-11-14T05:43:53;6.90;99.90
23597;DHT22;40226;50.874;4.394;2022-11-14T05:46:54;7.20;99.90
23597;DHT22;40226;50.874;4.394;2022-11-14T05:49:20;7.30;99.90
23597;DHT22;40226;50.874;4.394;2022-11-14T05:52:05;7.30;99.90
23597;DHT22;40226;50.874;4.394;2022-11-14T05:55:31;7.30;99.90
23597;DHT22;40226;50.874;4.394;2022-11-14T05:58:21;7.10;99.90
23597;DHT22;40226;50.874;4.394;2022-11-14T06:00:47;7.10;99.90
23597;DHT22;40226;50.874;4.394;2022-11-14T06:03:12;7.00;99.90
23597;DHT22;40226;50.874;4.394;2022-11-14T06:05:40;7.20;99.90
23597;DHT22;40226;50.874;4.394;2022-11-14T06:08:05;7.10;99.90
23597;DHT22;40226;50.874;4.394;2022-11-14T06:10:34;7.20;99.90
23597;DHT22;40226;50.874;4.394;2022-11-14T06:13:08;7.20;99.90
23597;DHT22;40226;50.874;4.394;2022-11-14T06:15:41;7.30;99.90
23597;DHT22;40226;50.874;4.394;2022-11-14T06:18:06;7.20;99.90
23597;DHT22;40226;50.874;4.394;2022-11-14T06:20:32;7.30;99.90
23597;DHT22;40226;50.874;4.394;2022-11-14T06:22:57;7.40;99.90
23597;DHT22;40226;50.874;4.394;2022-11-14T06:25:24;7.30;99.90
23597;DHT22;40226;50.874;4.394;2022-11-14T06:27:50;7.20;99.90
23597;DHT22;40226;50.874;4.394;2022-11-14T06:30:15;7.30;99.90
23597;DHT22;40226;50.874;4.394;2022-11-14T06:32:41;7.30;99.90
23597;DHT22;40226;50.874;4.394;2022-11-14T06:35:07;7.10;99.90
23597;DHT22;40226;50.874;4.394;2022-11-14T06:37:35;7.10;99.90
23597;DHT22;40226;50.874;4.394;2022-11-14T06:40:03;7.10;99.90
23597;DHT22;40226;50.874;4.394;2022-11-14T06:42:29;7.20;99.90
23597;DHT22;40226;50.874;4.394;2022-11-14T06:44:54;7.10;99.90
23597;DHT22;40226;50.874;4.394;2022-11-14T06:47:20;6.80;99.90
23597;DHT22;40226;50.874;4.394;2022-11-14T06:49:46;6.80;99.90
23597;DHT22;40226;50.874;4.394;2022-11-14T06:52:11;6.90;99.90
23597;DHT22;40226;50.874;4.394;2022-11-14T06:54:37;7.00;99.90
23597;DHT22;40226;50.874;4.394;2022-11-14T06:57:02;7.00;99.90
23597;DHT22;40226;50.874;4.394;2022-11-14T06:59:28;7.10;99.90
23597;DHT22;40226;50.874;4.394;2022-11-14T07:01:53;7.10;99.90
23597;DHT22;40226;50.874;4.394;2022-11-14T07:04:19;7.00;99.90
23597;DHT22;40226;50.874;4.394;2022-11-14T07:06:44;7.10;99.90
23597;DHT22;40226;50.874;4.394;2022-11-14T07:09:10;7.10;99.90
23597;DHT22;40226;50.874;4.394;2022-11-14T07:11:36;7.10;99.90
23597;DHT22;40226;50.874;4.394;2022-11-14T07:14:02;7.10;99.90
23597;DHT22;40226;50.874;4.394;2022-11-14T07:16:30;7.00;99.90
23597;DHT22;40226;50.874;4.394;2022-11-14T07:18:57;7.00;99.90
23597;DHT22;40226;50.874;4.394;2022-11-14T07:21:23;7.10;99.90
23597;DHT22;40226;50.874;4.394;2022-11-14T07:23:49;7.30;99.90
23597;DHT22;40226;50.874;4.394;2022-11-14T07:26:15;7.30;99.90
23597;DHT22;40226;50.874;4.394;2022-11-14T07:28:42;7.30;99.90
23597;DHT22;40226;50.874;4.394;2022-11-14T07:31:10;7.40;99.90
23597;DHT22;40226;50.874;4.394;2022-11-14T07:33:40;7.40;99.90
23597;DHT22;40226;50.874;4.394;2022-11-14T07:36:06;7.50;99.90
23597;DHT22;40226;50.874;4.394;2022-11-14T07:38:33;7.50;99.90
23597;DHT22;40226;50.874;4.394;2022-11-14T07:41:10;7.50;99.90
23597;DHT22;40226;50.874;4.394;2022-11-14T07:43:37;7.40;99.90
23597;DHT22;40226;50.874;4.394;2022-11-14T07:46:11;7.50;99.90
23597;DHT22;40226;50.874;4.394;2022-11-14T07:48:37;7.70;99.90
23597;DHT22;40226;50.874;4.394;2022-11-14T07:51:04;7.80;99.90
23597;DHT22;40226;50.874;4.394;2022-11-14T07:53:31;7.70;99.90
23597;DHT22;40226;50.874;4.394;2022-11-14T07:56:02;7.60;99.90
23597;DHT22;40226;50.874;4.394;2022-11-14T07:58:29;7.70;99.90
23597;DHT22;40226;50.874;4.394;2022-11-14T08:00:55;7.60;99.90
23597;DHT22;40226;50.874;4.394;2022-11-14T08:03:20;7.50;99.90
23597;DHT22;40226;50.874;4.394;2022-11-14T08:05:46;7.60;99.90
23597;DHT22;40226;50.874;4.394;2022-11-14T08:08:11;7.80;99.90
23597;DHT22;40226;50.874;4.394;2022-11-14T08:10:38;8.00;99.90
23597;DHT22;40226;50.874;4.394;2022-11-14T08:13:04;8.00;99.90
23597;DHT22;40226;50.874;4.394;2022-11-14T08:15:32;7.80;99.90
23597;DHT22;40226;50.874;4.394;2022-11-14T08:17:58;7.90;99.90
23597;DHT22;40226;50.874;4.394;2022-11-14T08:20:25;7.80;99.90
23597;DHT22;40226;50.874;4.394;2022-11-14T08:22:52;7.80;99.90
23597;DHT22;40226;50.874;4.394;2022-11-14T08:25:17;7.90;99.90
23597;DHT22;40226;50.874;4.394;2022-11-14T08:27:43;8.00;99.90
23597;DHT22;40226;50.874;4.394;2022-11-14T08:30:09;8.10;99.90
23597;DHT22;40226;50.874;4.394;2022-11-14T08:32:35;8.10;99.90
23597;DHT22;40226;50.874;4.394;2022-11-14T08:35:00;8.10;99.90
23597;DHT22;40226;50.874;4.394;2022-11-14T08:37:26;8.20;99.90
23597;DHT22;40226;50.874;4.394;2022-11-14T08:39:51;8.10;99.90
23597;DHT22;40226;50.874;4.394;2022-11-14T08:42:17;8.00;99.90
23597;DHT22;40226;50.874;4.394;2022-11-14T08:44:42;8.00;99.90
23597;DHT22;40226;50.874;4.394;2022-11-14T08:47:08;7.80;99.90
23597;DHT22;40226;50.874;4.394;2022-11-14T08:49:34;7.90;99.90
23597;DHT22;40226;50.874;4.394;2022-11-14T08:51:59;8.00;99.90
23597;DHT22;40226;50.874;4.394;2022-11-14T08:54:25;8.10;99.90
23597;DHT22;40226;50.874;4.394;2022-11-14T08:56:50;8.30;99.90
23597;DHT22;40226;50.874;4.394;2022-11-14T08:59:16;8.30;99.90
23597;DHT22;40226;50.874;4.394;2022-11-14T09:01:42;8.40;99.90
23597;DHT22;40226;50.874;4.394;2022-11-14T09:04:07;8.40;99.90
23597;DHT22;40226;50.874;4.394;2022-11-14T09:06:35;8.40;99.90
23597;DHT22;40226;50.874;4.394;2022-11-14T09:09:00;8.30;99.90
23597;DHT22;40226;50.874;4.394;2022-11-14T09:11:26;8.40;99.90
23597;DHT22;40226;50.874;4.394;2022-11-14T09:13:52;8.40;99.90
23597;DHT22;40226;50.874;4.394;2022-11-14T09:16:17;8.50;99.90
23597;DHT22;40226;50.874;4.394;2022-11-14T09:18:43;8.40;99.90
23597;DHT22;40226;50.874;4.394;2022-11-14T09:21:10;8.30;99.90
23597;DHT22;40226;50.874;4.394;2022-11-14T09:23:36;8.30;99.90
23597;DHT22;40226;50.874;4.394;2022-11-14T09:26:06;8.30;99.90
23597;DHT22;40226;50.874;4.394;2022-11-14T09:28:32;8.30;99.90
23597;DHT22;40226;50.874;4.394;2022-11-14T09:31:06;8.30;99.90
23597;DHT22;40226;50.874;4.394;2022-11-14T09:33:33;8.40;99.90
23597;DHT22;40226;50.874;4.394;2022-11-14T09:36:09;8.60;99.90
23597;DHT22;40226;50.874;4.394;2022-11-14T09:38:35;8.70;99.90
23597;DHT22;40226;50.874;4.394;2022-11-14T09:46:22;9.00;99.90
23597;DHT22;40226;50.874;4.394;2022-11-14T09:48:51;8.90;99.90
23597;DHT22;40226;50.874;4.394;2022-11-14T09:51:23;8.80;99.90
23597;DHT22;40226;50.874;4.394;2022-11-14T09:56:40;8.60;99.90
23597;DHT22;40226;50.874;4.394;2022-11-14T09:59:10;8.70;99.90
23597;DHT22;40226;50.874;4.394;2022-11-14T10:01:56;8.60;99.90
23597;DHT22;40226;50.874;4.394;2022-11-14T10:07:34;9.00;99.90
23597;DHT22;40226;50.874;4.394;2022-11-14T10:12:45;9.40;99.90
23597;DHT22;40226;50.874;4.394;2022-11-14T10:15:27;9.50;99.90
23597;DHT22;40226;50.874;4.394;2022-11-14T10:18:11;9.70;99.90
23597;DHT22;40226;50.874;4.394;2022-11-14T10:26:41;12.10;99.90
23597;DHT22;40226;50.874;4.394;2022-11-14T10:35:09;13.20;99.90
23597;DHT22;40226;50.874;4.394;2022-11-14T10:37:48;13.10;99.90
23597;DHT22;40226;50.874;4.394;2022-11-14T10:40:36;12.80;99.90
23597;DHT22;40226;50.874;4.394;2022-11-14T10:48:43;11.10;99.90
23597;DHT22;40226;50.874;4.394;2022-11-14T10:54:11;10.90;99.90
23597;DHT22;40226;50.874;4.394;2022-11-14T10:56:52;10.40;99.90
23597;DHT22;40226;50.874;4.394;2022-11-14T10:59:18;10.30;99.90
23597;DHT22;40226;50.874;4.394;2022-11-14T11:06:52;11.10;99.90
23597;DHT22;40226;50.874;4.394;2022-11-14T11:09:24;11.10;99.90
23597;DHT22;40226;50.874;4.394;2022-11-14T11:12:17;11.00;99.90
23597;DHT22;40226;50.874;4.394;2022-11-14T11:14:44;11.40;99.90
23597;DHT22;40226;50.874;4.394;2022-11-14T11:19:35;10.70;99.90
23597;DHT22;40226;50.874;4.394;2022-11-14T11:22:02;10.40;99.90
23597;DHT22;40226;50.874;4.394;2022-11-14T11:24:35;10.10;99.90
23597;DHT22;40226;50.874;4.394;2022-11-14T11:27:24;9.80;99.90
23597;DHT22;40226;50.874;4.394;2022-11-14T11:30:03;9.70;99.90
23597;DHT22;40226;50.874;4.394;2022-11-14T11:32:29;9.70;99.90
23597;DHT22;40226;50.874;4.394;2022-11-14T11:34:56;9.60;99.90
23597;DHT22;40226;50.874;4.394;2022-11-14T11:37:26;9.60;99.90
23597;DHT22;40226;50.874;4.394;2022-11-14T11:39:59;9.50;99.90
23597;DHT22;40226;50.874;4.394;2022-11-14T11:42:31;9.50;99.90
23597;DHT22;40226;50.874;4.394;2022-11-14T11:45:01;9.90;99.90
23597;DHT22;40226;50.874;4.394;2022-11-14T11:47:31;10.30;99.90
23597;DHT22;40226;50.874;4.394;2022-11-14T11:50:00;10.30;99.90
23597;DHT22;40226;50.874;4.394;2022-11-14T11:52:29;10.10;99.90
23597;DHT22;40226;50.874;4.394;2022-11-14T11:55:19;10.00;99.90
23597;DHT22;40226;50.874;4.394;2022-11-14T11:57:50;9.70;99.90
23597;DHT22;40226;50.874;4.394;2022-11-14T12:00:21;9.90;99.90
23597;DHT22;40226;50.874;4.394;2022-11-14T12:02:49;10.00;99.90
23597;DHT22;40226;50.874;4.394;2022-11-14T12:07:57;10.50;99.90
23597;DHT22;40226;50.874;4.394;2022-11-14T12:10:26;10.60;99.90
23597;DHT22;40226;50.874;4.394;2022-11-14T12:13:20;10.70;99.90
23597;DHT22;40226;50.874;4.394;2022-11-14T12:15:50;10.70;99.90
23597;DHT22;40226;50.874;4.394;2022-11-14T12:30:16;9.50;99.90
23597;DHT22;40226;50.874;4.394;2022-11-14T12:33:10;9.20;99.90
23597;DHT22;40226;50.874;4.394;2022-11-14T12:35:37;9.30;99.90
23597;DHT22;40226;50.874;4.394;2022-11-14T12:38:14;9.20;99.90
23597;DHT22;40226;50.874;4.394;2022-11-14T12:40:55;9.50;99.90
23597;DHT22;40226;50.874;4.394;2022-11-14T12:46:00;9.80;99.90
23597;DHT22;40226;50.874;4.394;2022-11-14T12:48:29;10.00;99.90
23597;DHT22;40226;50.874;4.394;2022-11-14T12:53:52;9.40;99.90
23597;DHT22;40226;50.874;4.394;2022-11-14T13:04:32;9.40;99.90
23597;DHT22;40226;50.874;4.394;2022-11-14T13:10:40;9.90;99.90
23597;DHT22;40226;50.874;4.394;2022-11-14T13:13:18;10.10;99.90
23597;DHT22;40226;50.874;4.394;2022-11-14T13:16:03;10.00;99.90
23597;DHT22;40226;50.874;4.394;2022-11-14T13:27:30;9.60;99.90
23597;DHT22;40226;50.874;4.394;2022-11-14T13:29:57;9.70;99.90
23597;DHT22;40226;50.874;4.394;2022-11-14T13:35:12;9.40;99.90
23597;DHT22;40226;50.874;4.394;2022-11-14T13:46:12;8.30;99.90
23597;DHT22;40226;50.874;4.394;2022-11-14T13:48:59;8.40;99.90
23597;DHT22;40226;50.874;4.394;2022-11-14T13:51:28;8.30;99.90
23597;DHT22;40226;50.874;4.394;2022-11-14T13:53:55;8.40;99.90
23597;DHT22;40226;50.874;4.394;2022-11-14T13:56:48;8.50;99.90
23597;DHT22;40226;50.874;4.394;2022-11-14T14:05:16;8.80;99.90
23597;DHT22;40226;50.874;4.394;2022-11-14T14:13:09;9.00;99.90
23597;DHT22;40226;50.874;4.394;2022-11-14T14:15:43;9.20;99.90
23597;DHT22;40226;50.874;4.394;2022-11-14T14:21:02;9.10;99.90
23597;DHT22;40226;50.874;4.394;2022-11-14T14:23:48;9.00;99.90
23597;DHT22;40226;50.874;4.394;2022-11-14T14:29:31;8.30;99.90
23597;DHT22;40226;50.874;4.394;2022-11-14T14:32:16;8.30;99.90
23597;DHT22;40226;50.874;4.394;2022-11-14T14:34:42;8.20;99.90
23597;DHT22;40226;50.874;4.394;2022-11-14T14:39:55;8.60;99.90
23597;DHT22;40226;50.874;4.394;2022-11-14T14:42:20;8.80;99.90
23597;DHT22;40226;50.874;4.394;2022-11-14T14:44:47;8.90;99.90
23597;DHT22;40226;50.874;4.394;2022-11-14T14:47:29;8.90;99.90
23597;DHT22;40226;50.874;4.394;2022-11-14T14:50:03;9.20;99.90
23597;DHT22;40226;50.874;4.394;2022-11-14T14:52:31;9.00;99.90
23597;DHT22;40226;50.874;4.394;2022-11-14T14:55:05;8.80;99.90
23597;DHT22;40226;50.874;4.394;2022-11-14T14:57:34;8.70;99.90
23597;DHT22;40226;50.874;4.394;2022-11-14T15:00:03;9.00;99.90
23597;DHT22;40226;50.874;4.394;2022-11-14T15:02:29;9.00;99.90
23597;DHT22;40226;50.874;4.394;2022-11-14T15:04:56;8.70;99.90
23597;DHT22;40226;50.874;4.394;2022-11-14T15:12:41;8.60;99.90
23597;DHT22;40226;50.874;4.394;2022-11-14T15:15:51;9.00;99.90
23597;DHT22;40226;50.874;4.394;2022-11-14T15:18:32;9.10;99.90
23597;DHT22;40226;50.874;4.394;2022-11-14T15:26:47;9.30;99.90
23597;DHT22;40226;50.874;4.394;2022-11-14T15:29:26;9.30;99.90
23597;DHT22;40226;50.874;4.394;2022-11-14T15:31:59;9.40;99.90
23597;DHT22;40226;50.874;4.394;2022-11-14T15:34:30;9.20;99.90
23597;DHT22;40226;50.874;4.394;2022-11-14T15:37:17;9.00;99.90
23597;DHT22;40226;50.874;4.394;2022-11-14T15:39:45;8.90;99.90
23597;DHT22;40226;50.874;4.394;2022-11-14T15:42:17;8.90;99.90
23597;DHT22;40226;50.874;4.394;2022-11-14T15:44:43;8.70;99.90
23597;DHT22;40226;50.874;4.394;2022-11-14T15:47:12;8.50;99.90
23597;DHT22;40226;50.874;4.394;2022-11-14T15:50:36;8.30;99.90
23597;DHT22;40226;50.874;4.394;2022-11-14T15:53:04;8.20;99.90
23597;DHT22;40226;50.874;4.394;2022-11-14T15:55:32;8.30;99.90
23597;DHT22;40226;50.874;4.394;2022-11-14T15:57:57;8.20;99.90
23597;DHT22;40226;50.874;4.394;2022-11-14T16:00:23;8.30;99.90
23597;DHT22;40226;50.874;4.394;2022-11-14T16:02:51;8.30;99.90
23597;DHT22;40226;50.874;4.394;2022-11-14T16:05:23;8.20;99.90
23597;DHT22;40226;50.874;4.394;2022-11-14T16:07:49;8.30;99.90
23597;DHT22;40226;50.874;4.394;2022-11-14T16:10:17;8.20;99.90
23597;DHT22;40226;50.874;4.394;2022-11-14T16:12:43;8.00;99.90
23597;DHT22;40226;50.874;4.394;2022-11-14T16:15:09;7.90;99.90
23597;DHT22;40226;50.874;4.394;2022-11-14T16:17:41;8.00;99.90
23597;DHT22;40226;50.874;4.394;2022-11-14T16:20:13;7.80;99.90
23597;DHT22;40226;50.874;4.394;2022-11-14T16:22:43;7.80;99.90
23597;DHT22;40226;50.874;4.394;2022-11-14T16:25:16;7.90;99.90
23597;DHT22;40226;50.874;4.394;2022-11-14T16:27:42;8.00;99.90
23597;DHT22;40226;50.874;4.394;2022-11-14T16:30:10;8.20;99.90
23597;DHT22;40226;50.874;4.394;2022-11-14T16:32:40;8.20;99.90
23597;DHT22;40226;50.874;4.394;2022-11-14T16:35:26;8.30;99.90
23597;DHT22;40226;50.874;4.394;2022-11-14T16:37:55;8.20;99.90
23597;DHT22;40226;50.874;4.394;2022-11-14T16:40:25;8.30;99.90
23597;DHT22;40226;50.874;4.394;2022-11-14T16:42:57;8.60;99.90
23597;DHT22;40226;50.874;4.394;2022-11-14T16:45:23;8.60;99.90
23597;DHT22;40226;50.874;4.394;2022-11-14T16:47:49;8.80;99.90
23597;DHT22;40226;50.874;4.394;2022-11-14T16:50:16;9.00;99.90
23597;DHT22;40226;50.874;4.394;2022-11-14T16:52:41;9.00;99.90
23597;DHT22;40226;50.874;4.394;2022-11-14T16:55:08;9.00;99.90
23597;DHT22;40226;50.874;4.394;2022-11-14T16:57:34;9.00;99.90
23597;DHT22;40226;50.874;4.394;2022-11-14T17:00:07;9.10;99.90
23597;DHT22;40226;50.874;4.394;2022-11-14T17:02:33;9.00;99.90
23597;DHT22;40226;50.874;4.394;2022-11-14T17:04:59;8.80;99.90
23597;DHT22;40226;50.874;4.394;2022-11-14T17:07:24;8.70;99.90
23597;DHT22;40226;50.874;4.394;2022-11-14T17:09:50;8.30;99.90
23597;DHT22;40226;50.874;4.394;2022-11-14T17:12:15;8.20;99.90
23597;DHT22;40226;50.874;4.394;2022-11-14T17:14:41;8.20;99.90
23597;DHT22;40226;50.874;4.394;2022-11-14T17:17:06;8.20;99.90
23597;DHT22;40226;50.874;4.394;2022-11-14T17:19:32;8.30;99.90
23597;DHT22;40226;50.874;4.394;2022-11-14T17:21:58;8.30;99.90
23597;DHT22;40226;50.874;4.394;2022-11-14T17:24:23;8.40;99.90
23597;DHT22;40226;50.874;4.394;2022-11-14T17:26:49;8.20;99.90
23597;DHT22;40226;50.874;4.394;2022-11-14T17:29:14;8.20;99.90
23597;DHT22;40226;50.874;4.394;2022-11-14T17:31:46;8.10;99.90
23597;DHT22;40226;50.874;4.394;2022-11-14T17:34:12;8.40;99.90
23597;DHT22;40226;50.874;4.394;2022-11-14T17:36:40;8.30;99.90
23597;DHT22;40226;50.874;4.394;2022-11-14T17:39:06;8.20;99.90
23597;DHT22;40226;50.874;4.394;2022-11-14T17:41:31;8.30;99.90
23597;DHT22;40226;50.874;4.394;2022-11-14T17:43:59;8.20;99.90
23597;DHT22;40226;50.874;4.394;2022-11-14T17:46:27;8.20;99.90
23597;DHT22;40226;50.874;4.394;2022-11-14T17:48:53;8.30;99.90
23597;DHT22;40226;50.874;4.394;2022-11-14T17:51:18;8.40;99.90
23597;DHT22;40226;50.874;4.394;2022-11-14T17:53:44;8.40;99.90
23597;DHT22;40226;50.874;4.394;2022-11-14T17:56:19;8.60;99.90
23597;DHT22;40226;50.874;4.394;2022-11-14T17:58:46;8.70;99.90
23597;DHT22;40226;50.874;4.394;2022-11-14T18:01:17;8.80;99.90
23597;DHT22;40226;50.874;4.394;2022-11-14T18:03:43;8.70;99.90
23597;DHT22;40226;50.874;4.394;2022-11-14T18:06:11;8.40;99.90
23597;DHT22;40226;50.874;4.394;2022-11-14T18:08:38;8.10;99.90
23597;DHT22;40226;50.874;4.394;2022-11-14T18:11:06;8.00;99.90
23597;DHT22;40226;50.874;4.394;2022-11-14T18:13:32;8.00;99.90